sensor_id;sensor_type;location;lat;lon;timestamp;P1;durP1;ratioP1;P2;durP2;ratioP2
19560;SDS011;9927;47.792;10.616;2023-01-01T00:02:27;170.77;;;104.70;;
19560;SDS011;9927;47.792;10.616;2023-01-01T00:05:02;160.50;;;98.28;;
19560;SDS011;9927;47.792;10.616;2023-01-01T00:07:30;159.67;;;100.47;;
19560;SDS011;9927;47.792;10.616;2023-01-01T00:09:57;158.40;;;100.80;;
19560;SDS011;9927;47.792;10.616;2023-01-01T00:12:43;155.50;;;99.00;;
19560;SDS011;9927;47.792;10.616;2023-01-01T00:15:10;162.07;;;96.97;;
19560;SDS011;9927;47.792;10.616;2023-01-01T00:17:37;160.37;;;99.67;;
19560;SDS011;9927;47.792;10.616;2023-01-01T00:20:05;174.30;;;108.60;;
19560;SDS011;9927;47.792;10.616;2023-01-01T00:22:33;191.33;;;115.57;;
19560;SDS011;9927;47.792;10.616;2023-01-01T00:25:20;177.73;;;108.30;;
19560;SDS011;9927;47.792;10.616;2023-01-01T00:27:47;132.90;;;86.38;;
19560;SDS011;9927;47.792;10.616;2023-01-01T00:30:15;146.53;;;95.50;;
19560;SDS011;9927;47.792;10.616;2023-01-01T00:32:42;130.67;;;81.37;;
19560;SDS011;9927;47.792;10.616;2023-01-01T00:35:22;100.93;;;62.20;;
19560;SDS011;9927;47.792;10.616;2023-01-01T00:37:50;98.23;;;60.60;;
19560;SDS011;9927;47.792;10.616;2023-01-01T00:40:18;84.03;;;53.77;;
19560;SDS011;9927;47.792;10.616;2023-01-01T00:42:45;79.03;;;50.53;;
19560;SDS011;9927;47.792;10.616;2023-01-01T00:45:12;78.63;;;49.40;;
19560;SDS011;9927;47.792;10.616;2023-01-01T00:47:47;79.37;;;49.47;;
19560;SDS011;9927;47.792;10.616;2023-01-01T00:50:15;78.73;;;46.93;;
19560;SDS011;9927;47.792;10.616;2023-01-01T00:52:42;66.20;;;43.03;;
19560;SDS011;9927;47.792;10.616;2023-01-01T00:55:10;66.87;;;42.00;;
19560;SDS011;9927;47.792;10.616;2023-01-01T00:57:37;64.60;;;40.77;;
19560;SDS011;9927;47.792;10.616;2023-01-01T01:00:05;49.40;;;32.87;;
19560;SDS011;9927;47.792;10.616;2023-01-01T01:02:33;54.53;;;34.03;;
19560;SDS011;9927;47.792;10.616;2023-01-01T01:05:00;54.80;;;34.03;;
19560;SDS011;9927;47.792;10.616;2023-01-01T01:07:36;42.13;;;28.53;;
19560;SDS011;9927;47.792;10.616;2023-01-01T01:10:04;34.97;;;23.07;;
19560;SDS011;9927;47.792;10.616;2023-01-01T01:12:33;28.90;;;19.13;;
19560;SDS011;9927;47.792;10.616;2023-01-01T01:15:01;29.97;;;18.53;;
19560;SDS011;9927;47.792;10.616;2023-01-01T01:17:28;27.47;;;17.13;;
19560;SDS011;9927;47.792;10.616;2023-01-01T01:19:56;26.77;;;17.07;;
19560;SDS011;9927;47.792;10.616;2023-01-01T01:22:23;25.67;;;16.20;;
19560;SDS011;9927;47.792;10.616;2023-01-01T01:24:55;26.53;;;17.70;;
19560;SDS011;9927;47.792;10.616;2023-01-01T01:27:23;30.80;;;20.07;;
19560;SDS011;9927;47.792;10.616;2023-01-01T01:29:51;31.37;;;19.33;;
19560;SDS011;9927;47.792;10.616;2023-01-01T01:32:18;28.33;;;19.20;;
19560;SDS011;9927;47.792;10.616;2023-01-01T01:34:46;33.92;;;21.60;;
19560;SDS011;9927;47.792;10.616;2023-01-01T01:37:14;32.80;;;20.23;;
19560;SDS011;9927;47.792;10.616;2023-01-01T01:39:41;38.03;;;21.97;;
19560;SDS011;9927;47.792;10.616;2023-01-01T01:42:15;26.67;;;17.47;;
19560;SDS011;9927;47.792;10.616;2023-01-01T01:50:29;20.00;;;12.23;;
19560;SDS011;9927;47.792;10.616;2023-01-01T01:55:35;24.20;;;16.07;;
19560;SDS011;9927;47.792;10.616;2023-01-01T01:58:06;27.10;;;16.60;;
19560;SDS011;9927;47.792;10.616;2023-01-01T02:00:37;29.30;;;18.10;;
19560;SDS011;9927;47.792;10.616;2023-01-01T02:03:05;28.47;;;18.83;;
19560;SDS011;9927;47.792;10.616;2023-01-01T02:05:44;33.03;;;19.90;;
19560;SDS011;9927;47.792;10.616;2023-01-01T02:08:12;33.37;;;20.07;;
19560;SDS011;9927;47.792;10.616;2023-01-01T02:10:41;28.13;;;17.60;;
19560;SDS011;9927;47.792;10.616;2023-01-01T02:13:10;26.87;;;15.90;;
19560;SDS011;9927;47.792;10.616;2023-01-01T02:15:47;25.60;;;15.87;;
19560;SDS011;9927;47.792;10.616;2023-01-01T02:18:35;22.77;;;15.20;;
19560;SDS011;9927;47.792;10.616;2023-01-01T02:21:13;25.93;;;17.37;;
19560;SDS011;9927;47.792;10.616;2023-01-01T02:31:43;19.37;;;13.23;;
19560;SDS011;9927;47.792;10.616;2023-01-01T02:34:16;20.83;;;12.57;;
19560;SDS011;9927;47.792;10.616;2023-01-01T02:36:49;17.07;;;10.93;;
19560;SDS011;9927;47.792;10.616;2023-01-01T02:39:20;15.07;;;8.93;;
19560;SDS011;9927;47.792;10.616;2023-01-01T02:41:51;12.83;;;8.37;;
19560;SDS011;9927;47.792;10.616;2023-01-01T02:44:21;14.30;;;8.83;;
19560;SDS011;9927;47.792;10.616;2023-01-01T02:46:51;12.70;;;8.77;;
19560;SDS011;9927;47.792;10.616;2023-01-01T02:49:19;15.93;;;8.90;;
19560;SDS011;9927;47.792;10.616;2023-01-01T02:54:29;11.73;;;6.40;;
19560;SDS011;9927;47.792;10.616;2023-01-01T03:00:22;11.97;;;6.80;;
19560;SDS011;9927;47.792;10.616;2023-01-01T03:06:04;10.20;;;6.30;;
19560;SDS011;9927;47.792;10.616;2023-01-01T03:11:24;9.53;;;5.57;;
19560;SDS011;9927;47.792;10.616;2023-01-01T03:16:56;9.55;;;6.30;;
19560;SDS011;9927;47.792;10.616;2023-01-01T03:19:29;10.20;;;6.70;;
19560;SDS011;9927;47.792;10.616;2023-01-01T03:22:16;9.85;;;6.20;;
19560;SDS011;9927;47.792;10.616;2023-01-01T03:24:49;8.53;;;5.87;;
19560;SDS011;9927;47.792;10.616;2023-01-01T03:27:23;12.80;;;8.18;;
19560;SDS011;9927;47.792;10.616;2023-01-01T03:29:54;24.20;;;17.17;;
19560;SDS011;9927;47.792;10.616;2023-01-01T03:32:26;30.55;;;20.15;;
19560;SDS011;9927;47.792;10.616;2023-01-01T03:35:17;37.40;;;25.07;;
19560;SDS011;9927;47.792;10.616;2023-01-01T03:37:48;31.20;;;21.38;;
19560;SDS011;9927;47.792;10.616;2023-01-01T03:40:19;29.50;;;19.20;;
19560;SDS011;9927;47.792;10.616;2023-01-01T03:42:49;35.70;;;23.60;;
19560;SDS011;9927;47.792;10.616;2023-01-01T03:45:23;29.52;;;21.27;;
19560;SDS011;9927;47.792;10.616;2023-01-01T03:47:54;32.97;;;22.40;;
19560;SDS011;9927;47.792;10.616;2023-01-01T03:50:28;37.37;;;22.37;;
19560;SDS011;9927;47.792;10.616;2023-01-01T03:53:11;20.40;;;11.37;;
19560;SDS011;9927;47.792;10.616;2023-01-01T03:56:04;13.93;;;9.00;;
19560;SDS011;9927;47.792;10.616;2023-01-01T04:01:47;19.83;;;12.63;;
19560;SDS011;9927;47.792;10.616;2023-01-01T04:04:19;20.90;;;13.67;;
19560;SDS011;9927;47.792;10.616;2023-01-01T04:06:46;11.67;;;8.77;;
19560;SDS011;9927;47.792;10.616;2023-01-01T04:09:15;10.33;;;7.13;;
19560;SDS011;9927;47.792;10.616;2023-01-01T04:11:47;10.48;;;6.75;;
19560;SDS011;9927;47.792;10.616;2023-01-01T04:14:34;11.57;;;7.10;;
19560;SDS011;9927;47.792;10.616;2023-01-01T04:17:04;15.47;;;8.80;;
19560;SDS011;9927;47.792;10.616;2023-01-01T04:19:32;23.50;;;14.67;;
19560;SDS011;9927;47.792;10.616;2023-01-01T04:22:00;13.37;;;10.60;;
19560;SDS011;9927;47.792;10.616;2023-01-01T04:24:28;16.57;;;11.00;;
19560;SDS011;9927;47.792;10.616;2023-01-01T04:26:55;16.73;;;10.70;;
19560;SDS011;9927;47.792;10.616;2023-01-01T04:29:23;15.07;;;9.33;;
19560;SDS011;9927;47.792;10.616;2023-01-01T04:31:50;13.97;;;8.67;;
19560;SDS011;9927;47.792;10.616;2023-01-01T04:34:17;11.83;;;7.20;;
19560;SDS011;9927;47.792;10.616;2023-01-01T04:36:45;10.90;;;6.90;;
19560;SDS011;9927;47.792;10.616;2023-01-01T04:39:12;13.50;;;7.23;;
19560;SDS011;9927;47.792;10.616;2023-01-01T04:41:39;10.57;;;6.57;;
19560;SDS011;9927;47.792;10.616;2023-01-01T04:44:06;10.47;;;7.20;;
19560;SDS011;9927;47.792;10.616;2023-01-01T04:46:33;8.67;;;7.13;;
19560;SDS011;9927;47.792;10.616;2023-01-01T04:49:01;14.87;;;7.97;;
19560;SDS011;9927;47.792;10.616;2023-01-01T04:51:28;12.37;;;7.80;;
19560;SDS011;9927;47.792;10.616;2023-01-01T04:53:55;11.80;;;6.97;;
19560;SDS011;9927;47.792;10.616;2023-01-01T04:56:24;13.17;;;7.30;;
19560;SDS011;9927;47.792;10.616;2023-01-01T04:58:52;10.97;;;6.93;;
19560;SDS011;9927;47.792;10.616;2023-01-01T05:01:22;11.77;;;6.87;;
19560;SDS011;9927;47.792;10.616;2023-01-01T05:03:52;13.57;;;7.70;;
19560;SDS011;9927;47.792;10.616;2023-01-01T05:06:20;24.73;;;9.50;;
19560;SDS011;9927;47.792;10.616;2023-01-01T05:08:48;13.40;;;7.63;;
19560;SDS011;9927;47.792;10.616;2023-01-01T05:11:18;13.10;;;8.13;;
19560;SDS011;9927;47.792;10.616;2023-01-01T05:13:48;9.77;;;7.40;;
19560;SDS011;9927;47.792;10.616;2023-01-01T05:16:19;9.13;;;7.33;;
19560;SDS011;9927;47.792;10.616;2023-01-01T05:18:49;9.47;;;7.30;;
19560;SDS011;9927;47.792;10.616;2023-01-01T05:21:17;10.90;;;7.73;;
19560;SDS011;9927;47.792;10.616;2023-01-01T05:23:52;7.47;;;6.50;;
19560;SDS011;9927;47.792;10.616;2023-01-01T05:26:28;10.20;;;7.30;;
19560;SDS011;9927;47.792;10.616;2023-01-01T05:28:58;10.70;;;6.87;;
19560;SDS011;9927;47.792;10.616;2023-01-01T05:31:27;11.00;;;7.67;;
19560;SDS011;9927;47.792;10.616;2023-01-01T05:33:56;9.33;;;6.80;;
19560;SDS011;9927;47.792;10.616;2023-01-01T05:36:24;6.93;;;6.23;;
19560;SDS011;9927;47.792;10.616;2023-01-01T05:38:53;10.43;;;7.30;;
19560;SDS011;9927;47.792;10.616;2023-01-01T05:41:21;7.63;;;6.83;;
19560;SDS011;9927;47.792;10.616;2023-01-01T05:43:49;9.97;;;6.87;;
19560;SDS011;9927;47.792;10.616;2023-01-01T05:46:17;9.97;;;7.20;;
19560;SDS011;9927;47.792;10.616;2023-01-01T05:48:47;9.33;;;6.77;;
19560;SDS011;9927;47.792;10.616;2023-01-01T05:51:18;8.40;;;6.47;;
19560;SDS011;9927;47.792;10.616;2023-01-01T05:53:47;7.83;;;6.40;;
19560;SDS011;9927;47.792;10.616;2023-01-01T05:56:14;9.40;;;6.97;;
19560;SDS011;9927;47.792;10.616;2023-01-01T05:58:43;9.70;;;6.90;;
19560;SDS011;9927;47.792;10.616;2023-01-01T06:01:13;11.57;;;8.00;;
19560;SDS011;9927;47.792;10.616;2023-01-01T06:03:42;9.07;;;6.93;;
19560;SDS011;9927;47.792;10.616;2023-01-01T06:06:10;8.57;;;6.50;;
19560;SDS011;9927;47.792;10.616;2023-01-01T06:08:39;8.43;;;6.13;;
19560;SDS011;9927;47.792;10.616;2023-01-01T06:11:09;7.93;;;6.37;;
19560;SDS011;9927;47.792;10.616;2023-01-01T06:13:37;6.57;;;6.00;;
19560;SDS011;9927;47.792;10.616;2023-01-01T06:16:04;9.50;;;6.97;;
19560;SDS011;9927;47.792;10.616;2023-01-01T06:18:33;7.73;;;6.30;;
19560;SDS011;9927;47.792;10.616;2023-01-01T06:21:08;9.33;;;6.43;;
19560;SDS011;9927;47.792;10.616;2023-01-01T06:23:37;9.53;;;7.07;;
19560;SDS011;9927;47.792;10.616;2023-01-01T06:26:08;9.43;;;7.07;;
19560;SDS011;9927;47.792;10.616;2023-01-01T06:28:40;10.13;;;7.20;;
19560;SDS011;9927;47.792;10.616;2023-01-01T06:31:09;9.33;;;6.83;;
19560;SDS011;9927;47.792;10.616;2023-01-01T06:33:38;9.63;;;7.37;;
19560;SDS011;9927;47.792;10.616;2023-01-01T06:36:06;9.67;;;7.30;;
19560;SDS011;9927;47.792;10.616;2023-01-01T06:38:36;10.90;;;7.50;;
19560;SDS011;9927;47.792;10.616;2023-01-01T06:41:14;10.83;;;8.03;;
19560;SDS011;9927;47.792;10.616;2023-01-01T06:43:43;10.00;;;7.30;;
19560;SDS011;9927;47.792;10.616;2023-01-01T06:46:18;9.67;;;7.33;;
19560;SDS011;9927;47.792;10.616;2023-01-01T06:48:48;8.63;;;6.60;;
19560;SDS011;9927;47.792;10.616;2023-01-01T06:51:20;10.07;;;6.73;;
19560;SDS011;9927;47.792;10.616;2023-01-01T06:53:51;8.90;;;6.30;;
19560;SDS011;9927;47.792;10.616;2023-01-01T06:56:19;9.07;;;5.90;;
19560;SDS011;9927;47.792;10.616;2023-01-01T06:58:46;8.00;;;5.93;;
19560;SDS011;9927;47.792;10.616;2023-01-01T07:01:14;6.70;;;5.80;;
19560;SDS011;9927;47.792;10.616;2023-01-01T07:03:50;7.73;;;5.73;;
19560;SDS011;9927;47.792;10.616;2023-01-01T07:06:18;8.17;;;6.27;;
19560;SDS011;9927;47.792;10.616;2023-01-01T07:08:46;9.23;;;7.37;;
19560;SDS011;9927;47.792;10.616;2023-01-01T07:11:13;7.93;;;6.43;;
19560;SDS011;9927;47.792;10.616;2023-01-01T07:13:41;9.60;;;7.03;;
19560;SDS011;9927;47.792;10.616;2023-01-01T07:16:08;8.93;;;6.83;;
19560;SDS011;9927;47.792;10.616;2023-01-01T07:18:39;9.60;;;6.80;;
19560;SDS011;9927;47.792;10.616;2023-01-01T07:21:20;7.23;;;6.50;;
19560;SDS011;9927;47.792;10.616;2023-01-01T07:23:56;8.97;;;6.70;;
19560;SDS011;9927;47.792;10.616;2023-01-01T07:26:28;12.43;;;7.23;;
19560;SDS011;9927;47.792;10.616;2023-01-01T07:28:56;10.97;;;6.80;;
19560;SDS011;9927;47.792;10.616;2023-01-01T07:31:33;10.90;;;8.07;;
19560;SDS011;9927;47.792;10.616;2023-01-01T07:34:05;9.87;;;7.10;;
19560;SDS011;9927;47.792;10.616;2023-01-01T07:36:33;11.03;;;7.60;;
19560;SDS011;9927;47.792;10.616;2023-01-01T07:39:00;9.83;;;7.40;;
19560;SDS011;9927;47.792;10.616;2023-01-01T07:41:27;9.17;;;6.43;;
19560;SDS011;9927;47.792;10.616;2023-01-01T07:43:55;12.53;;;6.83;;
19560;SDS011;9927;47.792;10.616;2023-01-01T07:46:22;10.07;;;6.90;;
19560;SDS011;9927;47.792;10.616;2023-01-01T07:48:49;9.83;;;6.67;;
19560;SDS011;9927;47.792;10.616;2023-01-01T07:51:16;12.30;;;7.53;;
19560;SDS011;9927;47.792;10.616;2023-01-01T07:53:44;12.03;;;7.57;;
19560;SDS011;9927;47.792;10.616;2023-01-01T07:56:11;10.70;;;7.00;;
19560;SDS011;9927;47.792;10.616;2023-01-01T07:58:39;12.23;;;8.33;;
19560;SDS011;9927;47.792;10.616;2023-01-01T08:01:10;13.53;;;8.50;;
19560;SDS011;9927;47.792;10.616;2023-01-01T08:03:38;15.20;;;8.97;;
19560;SDS011;9927;47.792;10.616;2023-01-01T08:06:07;12.17;;;8.10;;
19560;SDS011;9927;47.792;10.616;2023-01-01T08:08:35;11.60;;;7.93;;
19560;SDS011;9927;47.792;10.616;2023-01-01T08:11:03;10.47;;;7.90;;
19560;SDS011;9927;47.792;10.616;2023-01-01T08:13:31;11.07;;;8.43;;
19560;SDS011;9927;47.792;10.616;2023-01-01T08:15:58;12.37;;;8.37;;
19560;SDS011;9927;47.792;10.616;2023-01-01T08:18:26;15.33;;;8.77;;
19560;SDS011;9927;47.792;10.616;2023-01-01T08:20:53;12.03;;;8.33;;
19560;SDS011;9927;47.792;10.616;2023-01-01T08:23:20;11.07;;;8.30;;
19560;SDS011;9927;47.792;10.616;2023-01-01T08:25:48;9.67;;;7.67;;
19560;SDS011;9927;47.792;10.616;2023-01-01T08:28:15;10.37;;;8.20;;
19560;SDS011;9927;47.792;10.616;2023-01-01T08:30:42;7.90;;;7.07;;
19560;SDS011;9927;47.792;10.616;2023-01-01T08:33:09;11.43;;;7.93;;
19560;SDS011;9927;47.792;10.616;2023-01-01T08:35:36;9.27;;;7.73;;
19560;SDS011;9927;47.792;10.616;2023-01-01T08:38:08;7.90;;;7.10;;
19560;SDS011;9927;47.792;10.616;2023-01-01T08:40:37;9.47;;;7.17;;
19560;SDS011;9927;47.792;10.616;2023-01-01T08:43:04;12.30;;;8.40;;
19560;SDS011;9927;47.792;10.616;2023-01-01T08:45:32;12.13;;;8.33;;
19560;SDS011;9927;47.792;10.616;2023-01-01T08:47:59;12.37;;;9.27;;
19560;SDS011;9927;47.792;10.616;2023-01-01T08:50:26;14.53;;;9.97;;
19560;SDS011;9927;47.792;10.616;2023-01-01T08:52:54;10.93;;;8.20;;
19560;SDS011;9927;47.792;10.616;2023-01-01T08:55:22;8.93;;;7.83;;
19560;SDS011;9927;47.792;10.616;2023-01-01T08:57:50;9.47;;;7.30;;
19560;SDS011;9927;47.792;10.616;2023-01-01T09:00:17;10.93;;;7.73;;
19560;SDS011;9927;47.792;10.616;2023-01-01T09:02:44;8.57;;;6.75;;
19560;SDS011;9927;47.792;10.616;2023-01-01T09:05:12;7.38;;;6.50;;
19560;SDS011;9927;47.792;10.616;2023-01-01T09:07:39;11.63;;;7.43;;
19560;SDS011;9927;47.792;10.616;2023-01-01T09:10:06;10.88;;;8.00;;
19560;SDS011;9927;47.792;10.616;2023-01-01T09:12:34;7.30;;;6.20;;
19560;SDS011;9927;47.792;10.616;2023-01-01T09:15:01;8.57;;;6.97;;
19560;SDS011;9927;47.792;10.616;2023-01-01T09:17:28;7.70;;;6.30;;
19560;SDS011;9927;47.792;10.616;2023-01-01T09:19:55;8.00;;;6.60;;
19560;SDS011;9927;47.792;10.616;2023-01-01T09:22:22;11.43;;;7.75;;
19560;SDS011;9927;47.792;10.616;2023-01-01T09:24:50;11.20;;;7.28;;
19560;SDS011;9927;47.792;10.616;2023-01-01T09:27:17;8.33;;;6.57;;
19560;SDS011;9927;47.792;10.616;2023-01-01T09:29:44;11.32;;;8.63;;
19560;SDS011;9927;47.792;10.616;2023-01-01T09:32:11;7.60;;;6.50;;
19560;SDS011;9927;47.792;10.616;2023-01-01T09:34:39;6.40;;;5.80;;
19560;SDS011;9927;47.792;10.616;2023-01-01T09:37:06;7.15;;;6.45;;
19560;SDS011;9927;47.792;10.616;2023-01-01T09:39:33;8.02;;;6.90;;
19560;SDS011;9927;47.792;10.616;2023-01-01T09:47:45;7.80;;;6.30;;
19560;SDS011;9927;47.792;10.616;2023-01-01T09:50:18;9.32;;;6.63;;
19560;SDS011;9927;47.792;10.616;2023-01-01T09:52:55;6.88;;;6.18;;
19560;SDS011;9927;47.792;10.616;2023-01-01T09:55:39;6.50;;;5.40;;
19560;SDS011;9927;47.792;10.616;2023-01-01T09:58:28;5.10;;;4.70;;
19560;SDS011;9927;47.792;10.616;2023-01-01T10:01:08;4.68;;;4.28;;
19560;SDS011;9927;47.792;10.616;2023-01-01T10:03:50;4.80;;;4.40;;
19560;SDS011;9927;47.792;10.616;2023-01-01T10:06:38;5.00;;;4.53;;
19560;SDS011;9927;47.792;10.616;2023-01-01T10:09:21;4.68;;;4.28;;
19560;SDS011;9927;47.792;10.616;2023-01-01T10:15:10;4.38;;;4.00;;
19560;SDS011;9927;47.792;10.616;2023-01-01T10:17:45;4.15;;;3.80;;
19560;SDS011;9927;47.792;10.616;2023-01-01T10:22:54;6.95;;;4.43;;
19560;SDS011;9927;47.792;10.616;2023-01-01T10:25:27;4.50;;;4.20;;
19560;SDS011;9927;47.792;10.616;2023-01-01T10:27:58;4.30;;;4.00;;
19560;SDS011;9927;47.792;10.616;2023-01-01T10:30:29;3.75;;;3.45;;
19560;SDS011;9927;47.792;10.616;2023-01-01T10:32:57;3.97;;;3.40;;
19560;SDS011;9927;47.792;10.616;2023-01-01T10:38:24;3.45;;;3.25;;
19560;SDS011;9927;47.792;10.616;2023-01-01T10:40:53;3.38;;;3.15;;
19560;SDS011;9927;47.792;10.616;2023-01-01T10:43:27;3.10;;;2.80;;
19560;SDS011;9927;47.792;10.616;2023-01-01T10:45:54;3.47;;;3.17;;
19560;SDS011;9927;47.792;10.616;2023-01-01T10:48:23;3.00;;;2.90;;
19560;SDS011;9927;47.792;10.616;2023-01-01T10:50:58;3.00;;;2.80;;
19560;SDS011;9927;47.792;10.616;2023-01-01T10:56:02;3.03;;;2.85;;
19560;SDS011;9927;47.792;10.616;2023-01-01T10:58:33;2.75;;;2.65;;
19560;SDS011;9927;47.792;10.616;2023-01-01T11:01:17;2.65;;;2.55;;
19560;SDS011;9927;47.792;10.616;2023-01-01T11:06:38;3.47;;;3.20;;
19560;SDS011;9927;47.792;10.616;2023-01-01T11:09:22;3.70;;;3.33;;
19560;SDS011;9927;47.792;10.616;2023-01-01T11:12:02;3.22;;;3.03;;
19560;SDS011;9927;47.792;10.616;2023-01-01T11:14:53;3.40;;;3.20;;
19560;SDS011;9927;47.792;10.616;2023-01-01T11:17:26;5.68;;;4.13;;
19560;SDS011;9927;47.792;10.616;2023-01-01T11:19:56;5.47;;;3.90;;
19560;SDS011;9927;47.792;10.616;2023-01-01T11:22:35;7.60;;;4.38;;
19560;SDS011;9927;47.792;10.616;2023-01-01T11:27:49;4.68;;;3.50;;
19560;SDS011;9927;47.792;10.616;2023-01-01T11:30:18;6.05;;;4.32;;
19560;SDS011;9927;47.792;10.616;2023-01-01T11:32:49;4.82;;;3.65;;
19560;SDS011;9927;47.792;10.616;2023-01-01T11:35:22;5.45;;;3.83;;
19560;SDS011;9927;47.792;10.616;2023-01-01T11:37:52;3.35;;;2.95;;
19560;SDS011;9927;47.792;10.616;2023-01-01T11:40:24;3.33;;;3.03;;
19560;SDS011;9927;47.792;10.616;2023-01-01T11:42:58;3.28;;;2.92;;
19560;SDS011;9927;47.792;10.616;2023-01-01T11:45:31;5.85;;;3.63;;
19560;SDS011;9927;47.792;10.616;2023-01-01T11:50:52;4.30;;;3.38;;
19560;SDS011;9927;47.792;10.616;2023-01-01T11:55:51;5.20;;;3.40;;
19560;SDS011;9927;47.792;10.616;2023-01-01T11:58:25;7.45;;;4.30;;
19560;SDS011;9927;47.792;10.616;2023-01-01T12:00:57;2.83;;;2.63;;
19560;SDS011;9927;47.792;10.616;2023-01-01T12:11:51;3.45;;;2.92;;
19560;SDS011;9927;47.792;10.616;2023-01-01T12:17:26;5.43;;;3.63;;
19560;SDS011;9927;47.792;10.616;2023-01-01T12:20:01;6.43;;;4.38;;
19560;SDS011;9927;47.792;10.616;2023-01-01T12:22:36;8.52;;;4.07;;
19560;SDS011;9927;47.792;10.616;2023-01-01T12:25:04;2.60;;;2.42;;
19560;SDS011;9927;47.792;10.616;2023-01-01T12:36:14;3.85;;;3.30;;
19560;SDS011;9927;47.792;10.616;2023-01-01T12:51:00;2.22;;;2.10;;
19560;SDS011;9927;47.792;10.616;2023-01-01T12:53:53;3.10;;;2.80;;
19560;SDS011;9927;47.792;10.616;2023-01-01T12:59:23;3.15;;;2.85;;
19560;SDS011;9927;47.792;10.616;2023-01-01T13:01:54;3.10;;;2.85;;
19560;SDS011;9927;47.792;10.616;2023-01-01T13:04:22;3.10;;;2.80;;
19560;SDS011;9927;47.792;10.616;2023-01-01T13:06:53;3.10;;;2.80;;
19560;SDS011;9927;47.792;10.616;2023-01-01T13:09:31;5.32;;;3.65;;
19560;SDS011;9927;47.792;10.616;2023-01-01T13:12:07;3.00;;;2.70;;
19560;SDS011;9927;47.792;10.616;2023-01-01T13:14:47;1.98;;;1.98;;
19560;SDS011;9927;47.792;10.616;2023-01-01T13:17:19;4.30;;;3.03;;
19560;SDS011;9927;47.792;10.616;2023-01-01T13:20:26;6.78;;;4.38;;
19560;SDS011;9927;47.792;10.616;2023-01-01T13:22:50;5.97;;;3.35;;
19560;SDS011;9927;47.792;10.616;2023-01-01T13:25:18;3.45;;;3.15;;
19560;SDS011;9927;47.792;10.616;2023-01-01T13:33:22;3.78;;;3.10;;
19560;SDS011;9927;47.792;10.616;2023-01-01T13:38:47;2.85;;;2.65;;
19560;SDS011;9927;47.792;10.616;2023-01-01T13:43:51;3.25;;;2.90;;
19560;SDS011;9927;47.792;10.616;2023-01-01T13:49:27;3.42;;;3.13;;
19560;SDS011;9927;47.792;10.616;2023-01-01T13:55:27;3.20;;;3.00;;
19560;SDS011;9927;47.792;10.616;2023-01-01T14:03:37;2.90;;;2.70;;
19560;SDS011;9927;47.792;10.616;2023-01-01T14:06:11;4.05;;;2.83;;
19560;SDS011;9927;47.792;10.616;2023-01-01T14:08:46;3.13;;;2.88;;
19560;SDS011;9927;47.792;10.616;2023-01-01T14:11:31;2.88;;;2.75;;
19560;SDS011;9927;47.792;10.616;2023-01-01T14:13:59;3.30;;;3.00;;
19560;SDS011;9927;47.792;10.616;2023-01-01T14:16:26;3.58;;;3.28;;
19560;SDS011;9927;47.792;10.616;2023-01-01T14:18:55;2.85;;;2.72;;
19560;SDS011;9927;47.792;10.616;2023-01-01T14:21:26;4.10;;;3.45;;
19560;SDS011;9927;47.792;10.616;2023-01-01T14:24:00;3.63;;;3.33;;
19560;SDS011;9927;47.792;10.616;2023-01-01T14:26:31;3.63;;;3.20;;
19560;SDS011;9927;47.792;10.616;2023-01-01T14:29:04;3.65;;;3.10;;
19560;SDS011;9927;47.792;10.616;2023-01-01T14:31:34;3.55;;;3.25;;
19560;SDS011;9927;47.792;10.616;2023-01-01T14:34:19;6.50;;;4.35;;
19560;SDS011;9927;47.792;10.616;2023-01-01T14:36:57;3.30;;;3.03;;
19560;SDS011;9927;47.792;10.616;2023-01-01T14:42:04;4.90;;;4.25;;
19560;SDS011;9927;47.792;10.616;2023-01-01T14:44:38;4.38;;;3.47;;
19560;SDS011;9927;47.792;10.616;2023-01-01T14:47:31;3.00;;;2.80;;
19560;SDS011;9927;47.792;10.616;2023-01-01T14:50:10;5.05;;;3.92;;
19560;SDS011;9927;47.792;10.616;2023-01-01T14:52:41;5.13;;;3.90;;
19560;SDS011;9927;47.792;10.616;2023-01-01T14:55:12;6.15;;;4.13;;
19560;SDS011;9927;47.792;10.616;2023-01-01T14:57:44;4.45;;;3.50;;
19560;SDS011;9927;47.792;10.616;2023-01-01T15:00:22;6.00;;;4.50;;
19560;SDS011;9927;47.792;10.616;2023-01-01T15:03:02;9.13;;;6.57;;
19560;SDS011;9927;47.792;10.616;2023-01-01T15:05:32;6.18;;;5.45;;
19560;SDS011;9927;47.792;10.616;2023-01-01T15:08:05;7.45;;;6.38;;
19560;SDS011;9927;47.792;10.616;2023-01-01T15:10:44;13.05;;;9.45;;
19560;SDS011;9927;47.792;10.616;2023-01-01T15:13:16;16.02;;;9.50;;
19560;SDS011;9927;47.792;10.616;2023-01-01T15:15:49;9.68;;;7.35;;
19560;SDS011;9927;47.792;10.616;2023-01-01T15:21:00;9.40;;;6.43;;
19560;SDS011;9927;47.792;10.616;2023-01-01T15:23:30;10.25;;;7.32;;
19560;SDS011;9927;47.792;10.616;2023-01-01T15:25:57;15.43;;;10.18;;
19560;SDS011;9927;47.792;10.616;2023-01-01T15:28:24;15.90;;;11.23;;
19560;SDS011;9927;47.792;10.616;2023-01-01T15:30:53;23.00;;;14.50;;
19560;SDS011;9927;47.792;10.616;2023-01-01T15:33:22;25.45;;;14.77;;
19560;SDS011;9927;47.792;10.616;2023-01-01T15:35:50;20.40;;;13.13;;
19560;SDS011;9927;47.792;10.616;2023-01-01T15:38:20;14.68;;;9.80;;
19560;SDS011;9927;47.792;10.616;2023-01-01T15:40:50;10.45;;;8.02;;
19560;SDS011;9927;47.792;10.616;2023-01-01T15:48:30;10.70;;;6.50;;
19560;SDS011;9927;47.792;10.616;2023-01-01T15:51:04;13.65;;;6.68;;
19560;SDS011;9927;47.792;10.616;2023-01-01T15:53:45;13.77;;;7.40;;
19560;SDS011;9927;47.792;10.616;2023-01-01T15:56:19;11.65;;;6.05;;
19560;SDS011;9927;47.792;10.616;2023-01-01T15:58:50;10.52;;;6.53;;
19560;SDS011;9927;47.792;10.616;2023-01-01T16:01:22;11.25;;;6.30;;
19560;SDS011;9927;47.792;10.616;2023-01-01T16:04:01;12.10;;;6.40;;
19560;SDS011;9927;47.792;10.616;2023-01-01T16:06:33;7.35;;;5.70;;
19560;SDS011;9927;47.792;10.616;2023-01-01T16:09:12;11.60;;;6.90;;
19560;SDS011;9927;47.792;10.616;2023-01-01T16:11:41;10.93;;;6.30;;
19560;SDS011;9927;47.792;10.616;2023-01-01T16:14:09;14.30;;;7.57;;
19560;SDS011;9927;47.792;10.616;2023-01-01T16:16:39;17.33;;;9.88;;
19560;SDS011;9927;47.792;10.616;2023-01-01T16:19:18;17.58;;;10.63;;
19560;SDS011;9927;47.792;10.616;2023-01-01T16:21:47;15.68;;;10.88;;
19560;SDS011;9927;47.792;10.616;2023-01-01T16:24:15;21.13;;;12.50;;
19560;SDS011;9927;47.792;10.616;2023-01-01T16:26:43;16.23;;;9.80;;
19560;SDS011;9927;47.792;10.616;2023-01-01T16:29:11;15.98;;;10.63;;
19560;SDS011;9927;47.792;10.616;2023-01-01T16:31:39;19.38;;;11.10;;
19560;SDS011;9927;47.792;10.616;2023-01-01T16:34:12;17.23;;;11.27;;
19560;SDS011;9927;47.792;10.616;2023-01-01T16:36:40;23.08;;;13.48;;
19560;SDS011;9927;47.792;10.616;2023-01-01T16:39:08;27.27;;;16.20;;
19560;SDS011;9927;47.792;10.616;2023-01-01T16:41:38;29.83;;;17.63;;
19560;SDS011;9927;47.792;10.616;2023-01-01T16:44:14;34.30;;;21.95;;
19560;SDS011;9927;47.792;10.616;2023-01-01T16:46:41;47.33;;;31.85;;
19560;SDS011;9927;47.792;10.616;2023-01-01T16:49:09;43.28;;;28.10;;
19560;SDS011;9927;47.792;10.616;2023-01-01T16:51:36;24.60;;;16.67;;
19560;SDS011;9927;47.792;10.616;2023-01-01T16:54:09;25.23;;;15.85;;
19560;SDS011;9927;47.792;10.616;2023-01-01T16:56:37;20.83;;;13.23;;
19560;SDS011;9927;47.792;10.616;2023-01-01T16:59:04;19.17;;;12.40;;
19560;SDS011;9927;47.792;10.616;2023-01-01T17:01:31;15.02;;;11.70;;
19560;SDS011;9927;47.792;10.616;2023-01-01T17:03:59;18.15;;;11.27;;
19560;SDS011;9927;47.792;10.616;2023-01-01T17:06:26;19.60;;;11.57;;
19560;SDS011;9927;47.792;10.616;2023-01-01T17:08:53;20.70;;;12.90;;
19560;SDS011;9927;47.792;10.616;2023-01-01T17:11:21;32.75;;;18.52;;